Watts, Oklahoma
Current Conditions -  °F | °C
As of 2:15 PM on Monday 24 Nov 2014 (Local Time) from KSLG Reporting Station
Clear Clear  
Wind Chill: 52°   Ceiling: Unl
Heat Index: 52°   Visibility: 10mi
Dew Point: 25°   Wind: 22mph
Humidity: 35%   Direction: 270°W
Pressure: 29.89"   Gusts: 28mph
Location:  36.11°N, 94.57°W
Report Text: KSLG 242015Z AUTO 27019G24KT 10SM CLR 11/M04 A2989 RMK AO1
Loading
Personal Weather Stations






























Interactive Weather Map New forecast layout! Learn more

10-Day Weather Forecast

Advertisements
Track Severe Weather on mobile